Wellsville, Colorado
Current Conditions -  °F | °C
As of 8:55 AM on Saturday 25 Oct 2014 (Local Time) from KANK Reporting Station
Clear Clear  
Wind Chill: 42°   Ceiling: Unl
Heat Index: 45°   Visibility: 10mi
Dew Point: 20°   Wind: 6mph
Humidity: 37%   Direction: 290°WNW
Pressure: 30.53"   Gusts: NA
Location:  38.5561°N, 106.066°W
Report Text: KANK 251455Z AUTO 29005KT 10SM CLR 07/M07 A3053 RMK AO1 T00711067
Loading
Personal Weather Stations






























Interactive Weather Map
Tropical Storm Tracking
New forecast layout! Learn more

10-Day Weather Forecast

Advertisements
Track Severe Weather on mobile